sensor_id;sensor_type;location;lat;lon;timestamp;temperature;humidity
23550;DHT22;11953;49.010;8.608;2023-05-10T00:00:11;14.90;99.90
23550;DHT22;11953;49.010;8.608;2023-05-10T00:02:59;14.90;99.90
23550;DHT22;11953;49.010;8.608;2023-05-10T00:05:45;14.90;99.90
23550;DHT22;11953;49.010;8.608;2023-05-10T00:08:32;14.80;99.90
23550;DHT22;11953;49.010;8.608;2023-05-10T00:11:20;14.80;99.90
23550;DHT22;11953;49.010;8.608;2023-05-10T00:14:07;14.80;99.90
23550;DHT22;11953;49.010;8.608;2023-05-10T00:16:54;14.80;99.90
23550;DHT22;11953;49.010;8.608;2023-05-10T00:19:41;14.70;99.90
23550;DHT22;11953;49.010;8.608;2023-05-10T00:22:27;14.70;99.90
23550;DHT22;11953;49.010;8.608;2023-05-10T00:25:14;14.70;99.90
23550;DHT22;11953;49.010;8.608;2023-05-10T00:28:02;14.80;99.90
23550;DHT22;11953;49.010;8.608;2023-05-10T00:30:48;14.80;99.90
23550;DHT22;11953;49.010;8.608;2023-05-10T00:33:35;14.80;99.90
23550;DHT22;11953;49.010;8.608;2023-05-10T00:36:22;14.70;99.90
23550;DHT22;11953;49.010;8.608;2023-05-10T00:39:09;14.80;99.90
23550;DHT22;11953;49.010;8.608;2023-05-10T00:41:57;14.80;99.90
23550;DHT22;11953;49.010;8.608;2023-05-10T00:44:45;14.70;99.90
23550;DHT22;11953;49.010;8.608;2023-05-10T00:47:32;14.70;99.90
23550;DHT22;11953;49.010;8.608;2023-05-10T00:50:20;14.70;99.90
23550;DHT22;11953;49.010;8.608;2023-05-10T00:53:07;14.60;99.90
23550;DHT22;11953;49.010;8.608;2023-05-10T00:55:54;14.60;99.90
23550;DHT22;11953;49.010;8.608;2023-05-10T00:58:41;14.60;99.90
23550;DHT22;11953;49.010;8.608;2023-05-10T01:01:30;14.50;99.90
23550;DHT22;11953;49.010;8.608;2023-05-10T01:04:17;14.50;99.90
23550;DHT22;11953;49.010;8.608;2023-05-10T01:07:05;14.50;99.90
23550;DHT22;11953;49.010;8.608;2023-05-10T01:09:51;14.50;99.90
23550;DHT22;11953;49.010;8.608;2023-05-10T01:12:40;14.50;99.90
23550;DHT22;11953;49.010;8.608;2023-05-10T01:15:30;14.40;99.90
23550;DHT22;11953;49.010;8.608;2023-05-10T01:18:20;14.40;99.90
23550;DHT22;11953;49.010;8.608;2023-05-10T01:21:17;14.40;99.90
23550;DHT22;11953;49.010;8.608;2023-05-10T01:27:45;14.50;99.90
23550;DHT22;11953;49.010;8.608;2023-05-10T01:31:08;14.50;99.90
23550;DHT22;11953;49.010;8.608;2023-05-10T01:34:05;14.50;99.90
23550;DHT22;11953;49.010;8.608;2023-05-10T01:36:59;14.40;99.90
23550;DHT22;11953;49.010;8.608;2023-05-10T01:39:55;14.50;99.90
23550;DHT22;11953;49.010;8.608;2023-05-10T01:42:50;14.40;99.90
23550;DHT22;11953;49.010;8.608;2023-05-10T01:45:43;14.40;99.90
23550;DHT22;11953;49.010;8.608;2023-05-10T01:48:33;14.40;99.90
23550;DHT22;11953;49.010;8.608;2023-05-10T01:51:23;14.50;99.90
23550;DHT22;11953;49.010;8.608;2023-05-10T01:54:13;14.50;99.90
23550;DHT22;11953;49.010;8.608;2023-05-10T01:57:05;14.50;99.90
23550;DHT22;11953;49.010;8.608;2023-05-10T01:59:53;14.30;99.90
23550;DHT22;11953;49.010;8.608;2023-05-10T02:02:44;14.40;99.90
23550;DHT22;11953;49.010;8.608;2023-05-10T02:05:32;14.30;99.90
23550;DHT22;11953;49.010;8.608;2023-05-10T02:08:21;14.40;99.90
23550;DHT22;11953;49.010;8.608;2023-05-10T02:11:11;14.30;99.90
23550;DHT22;11953;49.010;8.608;2023-05-10T02:13:59;14.40;99.90
23550;DHT22;11953;49.010;8.608;2023-05-10T02:16:47;14.40;99.90
23550;DHT22;11953;49.010;8.608;2023-05-10T02:19:39;14.40;99.90
23550;DHT22;11953;49.010;8.608;2023-05-10T02:22:27;14.50;99.90
23550;DHT22;11953;49.010;8.608;2023-05-10T02:25:18;14.50;99.90
23550;DHT22;11953;49.010;8.608;2023-05-10T02:28:06;14.50;99.90
23550;DHT22;11953;49.010;8.608;2023-05-10T02:30:54;14.50;99.90
23550;DHT22;11953;49.010;8.608;2023-05-10T02:33:43;14.50;99.90
23550;DHT22;11953;49.010;8.608;2023-05-10T02:36:30;14.50;99.90
23550;DHT22;11953;49.010;8.608;2023-05-10T02:39:19;14.50;99.90
23550;DHT22;11953;49.010;8.608;2023-05-10T02:42:08;14.50;99.90
23550;DHT22;11953;49.010;8.608;2023-05-10T02:45:00;14.50;99.90
23550;DHT22;11953;49.010;8.608;2023-05-10T02:47:47;14.50;99.90
23550;DHT22;11953;49.010;8.608;2023-05-10T02:50:35;14.50;99.90
23550;DHT22;11953;49.010;8.608;2023-05-10T02:53:27;14.50;99.90
23550;DHT22;11953;49.010;8.608;2023-05-10T02:56:20;14.40;99.90
23550;DHT22;11953;49.010;8.608;2023-05-10T02:59:09;14.50;99.90
23550;DHT22;11953;49.010;8.608;2023-05-10T03:01:56;14.40;99.90
23550;DHT22;11953;49.010;8.608;2023-05-10T03:04:43;14.40;99.90
23550;DHT22;11953;49.010;8.608;2023-05-10T03:07:29;14.40;99.90
23550;DHT22;11953;49.010;8.608;2023-05-10T03:10:17;14.50;99.90
23550;DHT22;11953;49.010;8.608;2023-05-10T03:13:12;14.50;99.90
23550;DHT22;11953;49.010;8.608;2023-05-10T03:16:08;14.60;99.90
23550;DHT22;11953;49.010;8.608;2023-05-10T03:19:03;14.60;99.90
23550;DHT22;11953;49.010;8.608;2023-05-10T03:21:53;14.60;99.90
23550;DHT22;11953;49.010;8.608;2023-05-10T03:24:45;14.70;99.90
23550;DHT22;11953;49.010;8.608;2023-05-10T03:27:35;14.60;99.90
23550;DHT22;11953;49.010;8.608;2023-05-10T03:30:23;14.60;99.90
23550;DHT22;11953;49.010;8.608;2023-05-10T03:33:12;14.60;99.90
23550;DHT22;11953;49.010;8.608;2023-05-10T03:36:03;14.70;99.90
23550;DHT22;11953;49.010;8.608;2023-05-10T03:38:50;14.70;99.90
23550;DHT22;11953;49.010;8.608;2023-05-10T03:41:37;14.60;99.90
23550;DHT22;11953;49.010;8.608;2023-05-10T03:44:24;14.60;99.90
23550;DHT22;11953;49.010;8.608;2023-05-10T03:47:11;14.50;99.90
23550;DHT22;11953;49.010;8.608;2023-05-10T03:49:59;14.60;99.90
23550;DHT22;11953;49.010;8.608;2023-05-10T03:52:46;14.50;99.90
23550;DHT22;11953;49.010;8.608;2023-05-10T03:55:33;14.50;99.90
23550;DHT22;11953;49.010;8.608;2023-05-10T03:58:21;14.50;99.90
23550;DHT22;11953;49.010;8.608;2023-05-10T04:01:08;14.40;99.90
23550;DHT22;11953;49.010;8.608;2023-05-10T04:03:55;14.50;99.90
23550;DHT22;11953;49.010;8.608;2023-05-10T04:06:44;14.40;99.90
23550;DHT22;11953;49.010;8.608;2023-05-10T04:09:30;14.50;99.90
23550;DHT22;11953;49.010;8.608;2023-05-10T04:12:18;14.50;99.90
23550;DHT22;11953;49.010;8.608;2023-05-10T04:15:05;14.50;99.90
23550;DHT22;11953;49.010;8.608;2023-05-10T04:17:52;14.50;99.90
23550;DHT22;11953;49.010;8.608;2023-05-10T04:20:39;14.50;99.90
23550;DHT22;11953;49.010;8.608;2023-05-10T04:23:27;14.50;99.90
23550;DHT22;11953;49.010;8.608;2023-05-10T04:26:14;14.50;99.90
23550;DHT22;11953;49.010;8.608;2023-05-10T04:29:00;14.50;99.90
23550;DHT22;11953;49.010;8.608;2023-05-10T04:31:47;14.40;99.90
23550;DHT22;11953;49.010;8.608;2023-05-10T04:34:34;14.50;99.90
23550;DHT22;11953;49.010;8.608;2023-05-10T04:37:21;14.50;99.90
23550;DHT22;11953;49.010;8.608;2023-05-10T04:40:10;14.40;99.90
23550;DHT22;11953;49.010;8.608;2023-05-10T04:42:57;14.50;99.90
23550;DHT22;11953;49.010;8.608;2023-05-10T04:45:44;14.50;99.90
23550;DHT22;11953;49.010;8.608;2023-05-10T04:48:30;14.50;99.90
23550;DHT22;11953;49.010;8.608;2023-05-10T04:51:17;14.50;99.90
23550;DHT22;11953;49.010;8.608;2023-05-10T04:54:04;14.50;99.90
23550;DHT22;11953;49.010;8.608;2023-05-10T04:56:53;14.50;99.90
23550;DHT22;11953;49.010;8.608;2023-05-10T04:59:39;14.50;99.90
23550;DHT22;11953;49.010;8.608;2023-05-10T05:02:26;14.50;99.90
23550;DHT22;11953;49.010;8.608;2023-05-10T05:05:13;14.50;99.90
23550;DHT22;11953;49.010;8.608;2023-05-10T05:08:00;14.50;99.90
23550;DHT22;11953;49.010;8.608;2023-05-10T05:10:48;14.60;99.90
23550;DHT22;11953;49.010;8.608;2023-05-10T05:13:37;14.50;99.90
23550;DHT22;11953;49.010;8.608;2023-05-10T05:16:24;14.50;99.90
23550;DHT22;11953;49.010;8.608;2023-05-10T05:19:11;14.60;99.90
23550;DHT22;11953;49.010;8.608;2023-05-10T05:21:57;14.70;99.90
23550;DHT22;11953;49.010;8.608;2023-05-10T05:24:45;14.80;99.90
23550;DHT22;11953;49.010;8.608;2023-05-10T05:27:32;14.80;99.90
23550;DHT22;11953;49.010;8.608;2023-05-10T05:30:20;14.80;99.90
23550;DHT22;11953;49.010;8.608;2023-05-10T05:33:06;14.80;99.90
23550;DHT22;11953;49.010;8.608;2023-05-10T05:35:53;14.90;99.90
23550;DHT22;11953;49.010;8.608;2023-05-10T05:38:40;14.90;99.90
23550;DHT22;11953;49.010;8.608;2023-05-10T05:41:26;15.00;99.90
23550;DHT22;11953;49.010;8.608;2023-05-10T05:44:12;14.90;99.90
23550;DHT22;11953;49.010;8.608;2023-05-10T05:47:00;15.00;99.90
23550;DHT22;11953;49.010;8.608;2023-05-10T05:49:47;15.00;99.90
23550;DHT22;11953;49.010;8.608;2023-05-10T05:52:33;15.10;99.90
23550;DHT22;11953;49.010;8.608;2023-05-10T05:55:21;15.10;99.90
23550;DHT22;11953;49.010;8.608;2023-05-10T05:58:09;15.10;99.90
23550;DHT22;11953;49.010;8.608;2023-05-10T06:00:55;15.10;99.90
23550;DHT22;11953;49.010;8.608;2023-05-10T06:03:44;15.10;99.90
23550;DHT22;11953;49.010;8.608;2023-05-10T06:06:31;15.10;99.90
23550;DHT22;11953;49.010;8.608;2023-05-10T06:09:18;15.00;99.90
23550;DHT22;11953;49.010;8.608;2023-05-10T06:12:05;15.00;99.90
23550;DHT22;11953;49.010;8.608;2023-05-10T06:14:52;15.10;99.90
23550;DHT22;11953;49.010;8.608;2023-05-10T06:17:38;15.10;99.90
23550;DHT22;11953;49.010;8.608;2023-05-10T06:20:27;15.10;99.90
23550;DHT22;11953;49.010;8.608;2023-05-10T06:23:14;15.10;99.90
23550;DHT22;11953;49.010;8.608;2023-05-10T06:26:01;15.10;99.90
23550;DHT22;11953;49.010;8.608;2023-05-10T06:28:47;15.20;99.90
23550;DHT22;11953;49.010;8.608;2023-05-10T06:31:33;15.20;99.90
23550;DHT22;11953;49.010;8.608;2023-05-10T06:34:20;15.30;99.90
23550;DHT22;11953;49.010;8.608;2023-05-10T06:37:08;15.40;99.90
23550;DHT22;11953;49.010;8.608;2023-05-10T06:39:56;15.40;99.90
23550;DHT22;11953;49.010;8.608;2023-05-10T06:42:42;15.50;99.90
23550;DHT22;11953;49.010;8.608;2023-05-10T06:45:30;15.50;99.90
23550;DHT22;11953;49.010;8.608;2023-05-10T06:48:16;15.50;99.90
23550;DHT22;11953;49.010;8.608;2023-05-10T06:51:03;15.50;99.90
23550;DHT22;11953;49.010;8.608;2023-05-10T06:53:51;15.60;99.90
23550;DHT22;11953;49.010;8.608;2023-05-10T06:56:38;15.70;99.90
23550;DHT22;11953;49.010;8.608;2023-05-10T06:59:25;15.60;99.90
23550;DHT22;11953;49.010;8.608;2023-05-10T07:02:12;15.50;99.90
23550;DHT22;11953;49.010;8.608;2023-05-10T07:04:59;15.60;99.90
23550;DHT22;11953;49.010;8.608;2023-05-10T07:07:47;15.70;99.90
23550;DHT22;11953;49.010;8.608;2023-05-10T07:10:35;16.00;99.90
23550;DHT22;11953;49.010;8.608;2023-05-10T07:13:22;16.00;99.90
23550;DHT22;11953;49.010;8.608;2023-05-10T07:16:09;15.90;99.90
23550;DHT22;11953;49.010;8.608;2023-05-10T07:18:57;15.90;99.90
23550;DHT22;11953;49.010;8.608;2023-05-10T07:21:44;16.00;99.90
23550;DHT22;11953;49.010;8.608;2023-05-10T07:24:32;16.10;99.90
23550;DHT22;11953;49.010;8.608;2023-05-10T07:27:20;16.30;99.90
23550;DHT22;11953;49.010;8.608;2023-05-10T07:30:08;16.40;99.90
23550;DHT22;11953;49.010;8.608;2023-05-10T07:32:55;16.20;99.90
23550;DHT22;11953;49.010;8.608;2023-05-10T07:35:42;16.30;99.90
23550;DHT22;11953;49.010;8.608;2023-05-10T07:38:28;16.20;99.90
23550;DHT22;11953;49.010;8.608;2023-05-10T07:41:15;16.20;99.90
23550;DHT22;11953;49.010;8.608;2023-05-10T07:44:04;16.10;99.90
23550;DHT22;11953;49.010;8.608;2023-05-10T07:46:51;16.00;99.90
23550;DHT22;11953;49.010;8.608;2023-05-10T07:49:37;16.00;99.90
23550;DHT22;11953;49.010;8.608;2023-05-10T07:52:23;15.90;99.90
23550;DHT22;11953;49.010;8.608;2023-05-10T07:55:11;15.90;99.90
23550;DHT22;11953;49.010;8.608;2023-05-10T07:57:57;15.90;99.90
23550;DHT22;11953;49.010;8.608;2023-05-10T08:00:47;16.00;99.90
23550;DHT22;11953;49.010;8.608;2023-05-10T08:03:34;16.00;99.90
23550;DHT22;11953;49.010;8.608;2023-05-10T08:06:21;16.00;99.90
23550;DHT22;11953;49.010;8.608;2023-05-10T08:09:08;16.20;99.90
23550;DHT22;11953;49.010;8.608;2023-05-10T08:11:56;16.30;99.90
23550;DHT22;11953;49.010;8.608;2023-05-10T08:14:44;16.50;99.90
23550;DHT22;11953;49.010;8.608;2023-05-10T08:17:32;16.60;99.90
23550;DHT22;11953;49.010;8.608;2023-05-10T08:20:19;16.50;99.90
23550;DHT22;11953;49.010;8.608;2023-05-10T08:23:06;16.50;99.90
23550;DHT22;11953;49.010;8.608;2023-05-10T08:25:52;16.60;99.90
23550;DHT22;11953;49.010;8.608;2023-05-10T08:28:38;16.60;99.90
23550;DHT22;11953;49.010;8.608;2023-05-10T08:31:25;16.60;99.90
23550;DHT22;11953;49.010;8.608;2023-05-10T08:34:13;16.60;99.90
23550;DHT22;11953;49.010;8.608;2023-05-10T08:37:00;16.50;99.90
23550;DHT22;11953;49.010;8.608;2023-05-10T08:39:47;16.50;99.90
23550;DHT22;11953;49.010;8.608;2023-05-10T08:42:36;16.40;99.90
23550;DHT22;11953;49.010;8.608;2023-05-10T08:45:24;16.20;99.90
23550;DHT22;11953;49.010;8.608;2023-05-10T08:48:14;16.20;99.90
23550;DHT22;11953;49.010;8.608;2023-05-10T08:51:03;16.40;99.90
23550;DHT22;11953;49.010;8.608;2023-05-10T08:53:50;16.50;99.90
23550;DHT22;11953;49.010;8.608;2023-05-10T08:56:37;16.70;99.90
23550;DHT22;11953;49.010;8.608;2023-05-10T08:59:24;16.80;99.90
23550;DHT22;11953;49.010;8.608;2023-05-10T09:02:11;16.80;99.90
23550;DHT22;11953;49.010;8.608;2023-05-10T09:05:03;17.10;99.90
23550;DHT22;11953;49.010;8.608;2023-05-10T09:07:52;17.30;99.90
23550;DHT22;11953;49.010;8.608;2023-05-10T09:10:38;17.30;99.90
23550;DHT22;11953;49.010;8.608;2023-05-10T09:13:25;17.30;99.90
23550;DHT22;11953;49.010;8.608;2023-05-10T09:16:12;16.90;99.90
23550;DHT22;11953;49.010;8.608;2023-05-10T09:19:04;16.90;99.90
23550;DHT22;11953;49.010;8.608;2023-05-10T09:21:52;17.00;99.90
23550;DHT22;11953;49.010;8.608;2023-05-10T09:24:42;17.30;99.90
23550;DHT22;11953;49.010;8.608;2023-05-10T09:27:30;17.50;99.90
23550;DHT22;11953;49.010;8.608;2023-05-10T09:30:23;17.50;99.90
23550;DHT22;11953;49.010;8.608;2023-05-10T09:33:10;17.40;99.90
23550;DHT22;11953;49.010;8.608;2023-05-10T09:36:06;17.10;99.90
23550;DHT22;11953;49.010;8.608;2023-05-10T09:38:53;17.00;99.90
23550;DHT22;11953;49.010;8.608;2023-05-10T09:41:42;17.00;99.90
23550;DHT22;11953;49.010;8.608;2023-05-10T09:44:29;17.20;99.90
23550;DHT22;11953;49.010;8.608;2023-05-10T09:47:17;17.30;99.90
23550;DHT22;11953;49.010;8.608;2023-05-10T09:50:05;17.30;99.90
23550;DHT22;11953;49.010;8.608;2023-05-10T09:52:53;16.90;99.90
23550;DHT22;11953;49.010;8.608;2023-05-10T09:55:41;16.90;99.90
23550;DHT22;11953;49.010;8.608;2023-05-10T09:58:36;16.80;99.90
23550;DHT22;11953;49.010;8.608;2023-05-10T10:01:26;16.30;99.90
23550;DHT22;11953;49.010;8.608;2023-05-10T10:04:12;16.00;99.90
23550;DHT22;11953;49.010;8.608;2023-05-10T10:07:01;15.90;99.90
23550;DHT22;11953;49.010;8.608;2023-05-10T10:09:48;16.00;99.90
23550;DHT22;11953;49.010;8.608;2023-05-10T10:12:35;15.90;99.90
23550;DHT22;11953;49.010;8.608;2023-05-10T10:15:23;15.80;99.90
23550;DHT22;11953;49.010;8.608;2023-05-10T10:18:13;15.90;99.90
23550;DHT22;11953;49.010;8.608;2023-05-10T10:21:00;15.90;99.90
23550;DHT22;11953;49.010;8.608;2023-05-10T10:23:48;15.90;99.90
23550;DHT22;11953;49.010;8.608;2023-05-10T10:26:35;16.00;99.90
23550;DHT22;11953;49.010;8.608;2023-05-10T10:29:29;16.00;99.90
23550;DHT22;11953;49.010;8.608;2023-05-10T10:32:25;16.10;99.90
23550;DHT22;11953;49.010;8.608;2023-05-10T10:35:15;16.20;99.90
23550;DHT22;11953;49.010;8.608;2023-05-10T10:38:02;16.30;99.90
23550;DHT22;11953;49.010;8.608;2023-05-10T10:41:02;16.30;99.90
23550;DHT22;11953;49.010;8.608;2023-05-10T10:43:48;16.30;99.90
23550;DHT22;11953;49.010;8.608;2023-05-10T10:46:34;16.30;99.90
23550;DHT22;11953;49.010;8.608;2023-05-10T10:49:49;16.30;99.90
23550;DHT22;11953;49.010;8.608;2023-05-10T10:52:37;16.30;99.90
23550;DHT22;11953;49.010;8.608;2023-05-10T10:55:24;16.30;99.90
23550;DHT22;11953;49.010;8.608;2023-05-10T10:58:29;16.30;99.90
23550;DHT22;11953;49.010;8.608;2023-05-10T11:01:17;16.50;99.90
23550;DHT22;11953;49.010;8.608;2023-05-10T11:04:17;16.70;99.90
23550;DHT22;11953;49.010;8.608;2023-05-10T11:07:19;17.00;99.90
23550;DHT22;11953;49.010;8.608;2023-05-10T11:10:06;17.30;99.90
23550;DHT22;11953;49.010;8.608;2023-05-10T11:12:55;17.60;99.90
23550;DHT22;11953;49.010;8.608;2023-05-10T11:15:48;17.70;99.90
23550;DHT22;11953;49.010;8.608;2023-05-10T11:18:37;17.70;99.90
23550;DHT22;11953;49.010;8.608;2023-05-10T11:21:24;17.50;99.90
23550;DHT22;11953;49.010;8.608;2023-05-10T11:24:15;17.30;99.90
23550;DHT22;11953;49.010;8.608;2023-05-10T11:27:02;17.10;99.90
23550;DHT22;11953;49.010;8.608;2023-05-10T11:29:51;17.10;99.90
23550;DHT22;11953;49.010;8.608;2023-05-10T11:32:38;17.10;99.90
23550;DHT22;11953;49.010;8.608;2023-05-10T11:35:27;17.20;99.90
23550;DHT22;11953;49.010;8.608;2023-05-10T11:38:14;17.20;99.90
23550;DHT22;11953;49.010;8.608;2023-05-10T11:41:02;17.10;99.90
23550;DHT22;11953;49.010;8.608;2023-05-10T11:43:50;17.10;99.90
23550;DHT22;11953;49.010;8.608;2023-05-10T11:46:37;17.10;99.90
23550;DHT22;11953;49.010;8.608;2023-05-10T11:49:25;17.30;99.90
23550;DHT22;11953;49.010;8.608;2023-05-10T11:52:12;17.60;99.90
23550;DHT22;11953;49.010;8.608;2023-05-10T11:54:59;17.70;99.90
23550;DHT22;11953;49.010;8.608;2023-05-10T11:57:47;17.60;99.90
23550;DHT22;11953;49.010;8.608;2023-05-10T12:00:37;17.80;99.90
23550;DHT22;11953;49.010;8.608;2023-05-10T12:03:24;17.80;99.90
23550;DHT22;11953;49.010;8.608;2023-05-10T12:06:11;17.80;99.90
23550;DHT22;11953;49.010;8.608;2023-05-10T12:08:59;17.80;99.90
23550;DHT22;11953;49.010;8.608;2023-05-10T12:11:45;18.00;99.90
23550;DHT22;11953;49.010;8.608;2023-05-10T12:14:36;18.00;99.90
23550;DHT22;11953;49.010;8.608;2023-05-10T12:17:27;18.00;99.90
23550;DHT22;11953;49.010;8.608;2023-05-10T12:20:18;17.80;99.90
23550;DHT22;11953;49.010;8.608;2023-05-10T12:23:08;17.70;99.90
23550;DHT22;11953;49.010;8.608;2023-05-10T12:26:01;17.60;99.90
23550;DHT22;11953;49.010;8.608;2023-05-10T12:28:48;17.80;99.90
23550;DHT22;11953;49.010;8.608;2023-05-10T12:31:51;17.90;99.90
23550;DHT22;11953;49.010;8.608;2023-05-10T12:34:37;18.20;99.90
23550;DHT22;11953;49.010;8.608;2023-05-10T12:37:25;18.40;99.90
23550;DHT22;11953;49.010;8.608;2023-05-10T12:40:14;18.50;99.90
23550;DHT22;11953;49.010;8.608;2023-05-10T12:43:01;18.50;99.90
23550;DHT22;11953;49.010;8.608;2023-05-10T12:45:48;18.50;99.90
23550;DHT22;11953;49.010;8.608;2023-05-10T12:48:38;18.60;99.90
23550;DHT22;11953;49.010;8.608;2023-05-10T12:51:25;18.70;99.90
23550;DHT22;11953;49.010;8.608;2023-05-10T12:54:11;18.70;99.90
23550;DHT22;11953;49.010;8.608;2023-05-10T12:56:58;18.50;99.90
23550;DHT22;11953;49.010;8.608;2023-05-10T12:59:45;18.40;99.90
23550;DHT22;11953;49.010;8.608;2023-05-10T13:02:32;18.50;99.90
23550;DHT22;11953;49.010;8.608;2023-05-10T13:05:20;18.60;99.90
23550;DHT22;11953;49.010;8.608;2023-05-10T13:08:07;18.60;99.90
23550;DHT22;11953;49.010;8.608;2023-05-10T13:10:54;18.70;99.90
23550;DHT22;11953;49.010;8.608;2023-05-10T13:13:40;18.80;99.90
23550;DHT22;11953;49.010;8.608;2023-05-10T13:16:27;18.80;99.90
23550;DHT22;11953;49.010;8.608;2023-05-10T13:19:16;19.00;99.90
23550;DHT22;11953;49.010;8.608;2023-05-10T13:22:04;19.10;99.90
23550;DHT22;11953;49.010;8.608;2023-05-10T13:24:51;19.00;99.90
23550;DHT22;11953;49.010;8.608;2023-05-10T13:27:37;19.00;99.90
23550;DHT22;11953;49.010;8.608;2023-05-10T13:30:24;18.80;99.90
23550;DHT22;11953;49.010;8.608;2023-05-10T13:33:10;18.70;99.90
23550;DHT22;11953;49.010;8.608;2023-05-10T13:35:57;18.70;99.90
23550;DHT22;11953;49.010;8.608;2023-05-10T13:38:45;18.70;99.90
23550;DHT22;11953;49.010;8.608;2023-05-10T13:41:32;18.80;99.90
23550;DHT22;11953;49.010;8.608;2023-05-10T13:44:20;18.80;99.90
23550;DHT22;11953;49.010;8.608;2023-05-10T13:47:07;18.60;99.90
23550;DHT22;11953;49.010;8.608;2023-05-10T13:49:53;18.70;99.90
23550;DHT22;11953;49.010;8.608;2023-05-10T13:52:40;18.70;99.90
23550;DHT22;11953;49.010;8.608;2023-05-10T13:55:28;18.70;99.90
23550;DHT22;11953;49.010;8.608;2023-05-10T13:58:15;18.70;99.90
23550;DHT22;11953;49.010;8.608;2023-05-10T14:01:02;18.80;99.90
23550;DHT22;11953;49.010;8.608;2023-05-10T14:03:50;18.70;99.90
23550;DHT22;11953;49.010;8.608;2023-05-10T14:06:37;18.60;99.90
23550;DHT22;11953;49.010;8.608;2023-05-10T14:09:24;18.40;99.90
23550;DHT22;11953;49.010;8.608;2023-05-10T14:12:12;18.50;99.90
23550;DHT22;11953;49.010;8.608;2023-05-10T14:14:59;18.30;99.90
23550;DHT22;11953;49.010;8.608;2023-05-10T14:17:46;18.40;99.90
23550;DHT22;11953;49.010;8.608;2023-05-10T14:20:33;18.50;99.90
23550;DHT22;11953;49.010;8.608;2023-05-10T14:23:20;18.50;99.90
23550;DHT22;11953;49.010;8.608;2023-05-10T14:26:09;18.40;99.90
23550;DHT22;11953;49.010;8.608;2023-05-10T14:28:57;18.60;99.90
23550;DHT22;11953;49.010;8.608;2023-05-10T14:31:44;18.60;99.90
23550;DHT22;11953;49.010;8.608;2023-05-10T14:34:31;18.70;99.90
23550;DHT22;11953;49.010;8.608;2023-05-10T14:37:17;18.70;99.90
23550;DHT22;11953;49.010;8.608;2023-05-10T14:40:05;18.60;99.90
23550;DHT22;11953;49.010;8.608;2023-05-10T14:42:52;18.60;99.90
23550;DHT22;11953;49.010;8.608;2023-05-10T14:45:40;18.60;99.90
23550;DHT22;11953;49.010;8.608;2023-05-10T14:48:27;18.60;99.90
23550;DHT22;11953;49.010;8.608;2023-05-10T14:51:14;18.50;99.90
23550;DHT22;11953;49.010;8.608;2023-05-10T14:54:00;18.50;99.90
23550;DHT22;11953;49.010;8.608;2023-05-10T14:56:47;18.40;99.90
23550;DHT22;11953;49.010;8.608;2023-05-10T14:59:35;18.40;99.90
23550;DHT22;11953;49.010;8.608;2023-05-10T15:02:24;18.50;99.90
23550;DHT22;11953;49.010;8.608;2023-05-10T15:05:11;18.40;99.90
23550;DHT22;11953;49.010;8.608;2023-05-10T15:08:16;18.50;99.90
23550;DHT22;11953;49.010;8.608;2023-05-10T15:11:03;18.50;99.90
23550;DHT22;11953;49.010;8.608;2023-05-10T15:13:50;18.60;99.90
23550;DHT22;11953;49.010;8.608;2023-05-10T15:16:36;18.50;99.90
23550;DHT22;11953;49.010;8.608;2023-05-10T15:19:25;18.40;99.90
23550;DHT22;11953;49.010;8.608;2023-05-10T15:22:12;18.20;99.90
23550;DHT22;11953;49.010;8.608;2023-05-10T15:24:58;18.20;99.90
23550;DHT22;11953;49.010;8.608;2023-05-10T15:27:45;18.30;99.90
23550;DHT22;11953;49.010;8.608;2023-05-10T15:30:32;18.20;99.90
23550;DHT22;11953;49.010;8.608;2023-05-10T15:33:19;18.30;99.90
23550;DHT22;11953;49.010;8.608;2023-05-10T15:36:07;18.50;99.90
23550;DHT22;11953;49.010;8.608;2023-05-10T15:38:54;18.60;99.90
23550;DHT22;11953;49.010;8.608;2023-05-10T15:41:41;18.60;99.90
23550;DHT22;11953;49.010;8.608;2023-05-10T15:44:28;18.60;99.90
23550;DHT22;11953;49.010;8.608;2023-05-10T15:47:14;18.70;99.90
23550;DHT22;11953;49.010;8.608;2023-05-10T15:50:01;18.60;99.90
23550;DHT22;11953;49.010;8.608;2023-05-10T15:52:50;18.40;99.90
23550;DHT22;11953;49.010;8.608;2023-05-10T15:55:36;18.20;99.90
23550;DHT22;11953;49.010;8.608;2023-05-10T15:58:23;18.20;99.90
23550;DHT22;11953;49.010;8.608;2023-05-10T16:01:09;18.00;99.90
23550;DHT22;11953;49.010;8.608;2023-05-10T16:03:57;17.90;99.90
23550;DHT22;11953;49.010;8.608;2023-05-10T16:06:43;17.70;99.90
23550;DHT22;11953;49.010;8.608;2023-05-10T16:09:31;17.60;99.90
23550;DHT22;11953;49.010;8.608;2023-05-10T16:12:18;17.50;99.90
23550;DHT22;11953;49.010;8.608;2023-05-10T16:15:06;17.50;99.90
23550;DHT22;11953;49.010;8.608;2023-05-10T16:17:52;17.50;99.90
23550;DHT22;11953;49.010;8.608;2023-05-10T16:20:39;17.50;99.90
23550;DHT22;11953;49.010;8.608;2023-05-10T16:23:26;17.50;99.90
23550;DHT22;11953;49.010;8.608;2023-05-10T16:26:14;17.40;99.90
23550;DHT22;11953;49.010;8.608;2023-05-10T16:29:01;17.40;99.90
23550;DHT22;11953;49.010;8.608;2023-05-10T16:31:47;17.30;99.90
23550;DHT22;11953;49.010;8.608;2023-05-10T16:34:34;17.40;99.90
23550;DHT22;11953;49.010;8.608;2023-05-10T16:37:20;17.20;99.90
23550;DHT22;11953;49.010;8.608;2023-05-10T16:40:09;17.20;99.90
23550;DHT22;11953;49.010;8.608;2023-05-10T16:42:57;17.20;99.90
23550;DHT22;11953;49.010;8.608;2023-05-10T16:45:43;17.20;99.90
23550;DHT22;11953;49.010;8.608;2023-05-10T16:48:30;17.20;99.90
23550;DHT22;11953;49.010;8.608;2023-05-10T16:51:16;17.10;99.90
23550;DHT22;11953;49.010;8.608;2023-05-10T16:54:03;17.10;99.90
23550;DHT22;11953;49.010;8.608;2023-05-10T16:56:50;17.10;99.90
23550;DHT22;11953;49.010;8.608;2023-05-10T16:59:38;17.10;99.90
23550;DHT22;11953;49.010;8.608;2023-05-10T17:02:25;16.90;99.90
23550;DHT22;11953;49.010;8.608;2023-05-10T17:05:12;16.80;99.90
23550;DHT22;11953;49.010;8.608;2023-05-10T17:07:59;17.00;99.90
23550;DHT22;11953;49.010;8.608;2023-05-10T17:10:46;17.00;99.90
23550;DHT22;11953;49.010;8.608;2023-05-10T17:13:32;17.10;99.90
23550;DHT22;11953;49.010;8.608;2023-05-10T17:16:21;17.10;99.90
23550;DHT22;11953;49.010;8.608;2023-05-10T17:19:07;16.90;99.90
23550;DHT22;11953;49.010;8.608;2023-05-10T17:21:55;17.00;99.90
23550;DHT22;11953;49.010;8.608;2023-05-10T17:24:43;17.00;99.90
23550;DHT22;11953;49.010;8.608;2023-05-10T17:27:30;16.90;99.90
23550;DHT22;11953;49.010;8.608;2023-05-10T17:30:17;17.00;99.90
23550;DHT22;11953;49.010;8.608;2023-05-10T17:33:11;16.90;99.90
23550;DHT22;11953;49.010;8.608;2023-05-10T17:35:58;17.00;99.90
23550;DHT22;11953;49.010;8.608;2023-05-10T17:38:44;16.90;99.90
23550;DHT22;11953;49.010;8.608;2023-05-10T17:41:31;16.90;99.90
23550;DHT22;11953;49.010;8.608;2023-05-10T17:44:17;16.80;99.90